Time;durP1;ratioP1;P1;durP2;ratioP2;P2;SDS_P1;SDS_P2;PMS_P1;PMS_P2;Temp;Humidity;BMP_temperature;BMP_pressure;BME280_temperature;BME280_humidity;BME280_pressure;Samples;Min_cycle;Max_cycle;Signal;HPM_P1;HPM_P2
2021/12/05 00:18:03;;;;;;;3.40;1.00;;;;;;;;;;5093680;28;20089;-57
2021/12/05 00:23:11;;;;;;;4.10;1.15;;;;;;;;;;5100365;28;20027;-55
2021/12/05 00:25:38;;;;;;;3.35;1.20;;;;;;;;;;5093237;28;20486;-57
2021/12/05 00:33:51;;;;;;;3.50;1.20;;;;;;;;;;5093391;28;20043;-57
2021/12/05 00:40:12;;;;;;;3.45;1.23;;;;;;;;;;5093291;28;20039;-56
2021/12/05 00:50:07;;;;;;;3.00;1.90;;;;;;;;;;5093118;28;20035;-57
2021/12/05 00:58:03;;;;;;;3.65;1.65;;;;;;;;;;5092941;28;20509;-57
2021/12/05 01:00:53;;;;;;;3.47;1.33;;;15.50;78.80;;;;;;5092914;28;20039;-57
2021/12/05 01:16:37;;;;;;;6.57;1.90;;;15.70;79.10;;;;;;5092895;28;20035;-57
2021/12/05 01:19:05;;;;;;;4.72;1.23;;;15.40;77.20;;;;;;5092332;28;20185;-55
2021/12/05 01:21:32;;;;;;;3.45;1.08;;;15.40;77.80;;;;;;5092321;28;20120;-57
2021/12/05 01:24:35;;;;;;;3.22;1.25;;;15.60;79.30;;;;;;5091875;28;20020;-57
2021/12/05 01:27:07;;;;;;;5.80;1.38;;;;;;;;;;5091912;28;20043;-56
2021/12/05 01:29:44;;;;;;;3.45;1.42;;;;;;;;;;5092169;28;20031;-56
2021/12/05 01:35:12;;;;;;;3.25;1.17;;;;;;;;;;5092469;28;20121;-57
2021/12/05 01:38:01;;;;;;;3.88;1.55;;;;;;;;;;5092466;28;20054;-56
2021/12/05 01:40:42;;;;;;;4.28;1.58;;;15.40;75.80;;;;;;5092456;28;20061;-57
2021/12/05 01:51:27;;;;;;;5.93;1.60;;;15.40;76.40;;;;;;5092340;28;20065;-57
2021/12/05 01:54:18;;;;;;;3.72;1.90;;;;;;;;;;5091927;28;20025;-55
2021/12/05 02:02:57;;;;;;;4.55;1.27;;;;;;;;;;5091988;28;20034;-56
2021/12/05 02:10:55;;;;;;;3.22;1.58;;;15.20;79.30;;;;;;5092173;28;20442;-57
2021/12/05 02:16:29;;;;;;;4.28;1.48;;;;;;;;;;5092157;28;20398;-57
2021/12/05 02:40:09;;;;;;;9.10;2.15;;;;;;;;;;5095485;28;20047;-57
2021/12/05 02:42:44;;;;;;;4.70;1.60;;;;;;;;;;5095386;28;20032;-57
2021/12/05 02:45:11;;;;;;;5.97;1.77;;;;;;;;;;5095068;28;20557;-57
2021/12/05 02:47:38;;;;;;;5.40;2.10;;;15.20;79.20;;;;;;5095078;28;20028;-57
2021/12/05 02:50:07;;;;;;;4.88;1.55;;;15.20;79.20;;;;;;5095064;28;20020;-56
2021/12/05 02:52:38;;;;;;;5.32;1.80;;;15.10;79.30;;;;;;5095331;28;20039;-58
2021/12/05 02:55:13;;;;;;;5.40;1.33;;;15.40;74.10;;;;;;5095395;28;20027;-56
2021/12/05 02:58:02;;;;;;;5.57;1.85;;;15.00;79.10;;;;;;5094959;28;20432;-57
2021/12/05 03:00:42;;;;;;;5.75;1.52;;;15.20;79.30;;;;;;5095004;28;20032;-55
2021/12/05 03:03:18;;;;;;;5.18;1.67;;;15.30;79.30;;;;;;5094653;28;20174;-56
2021/12/05 03:05:49;;;;;;;5.15;1.70;;;15.10;79.20;;;;;;5094779;28;20039;-57
2021/12/05 03:08:15;;;;;;;5.15;1.60;;;;;;;;;;5093490;28;20478;-57
2021/12/05 03:10:43;;;;;;;5.35;1.80;;;;;;;;;;5094759;28;20115;-57
2021/12/05 03:13:09;;;;;;;3.47;1.52;;;;;;;;;;5094712;28;20359;-56
2021/12/05 03:15:35;;;;;;;6.18;1.95;;;;;;;;;;5094672;28;20486;-57
2021/12/05 03:18:01;;;;;;;4.82;1.73;;;;;;;;;;5094535;28;20024;-56
2021/12/05 03:20:27;;;;;;;7.00;2.00;;;;;;;;;;5094519;28;20036;-55
2021/12/05 03:22:54;;;;;;;5.35;1.50;;;;;;;;;;5094394;28;20055;-56
2021/12/05 03:25:20;;;;;;;5.40;1.35;;;15.10;76.10;;;;;;5094308;28;20036;-57
2021/12/05 03:27:46;;;;;;;3.38;1.27;;;;;;;;;;5094380;28;20073;-56
2021/12/05 03:30:14;;;;;;;5.20;2.00;;;15.10;79.50;;;;;;5094697;28;20028;-57
2021/12/05 03:32:40;;;;;;;4.80;1.63;;;15.10;76.60;;;;;;5094617;28;20020;-57
2021/12/05 03:35:08;;;;;;;3.55;1.80;;;15.20;79.50;;;;;;5094501;28;20046;-57
2021/12/05 03:37:34;;;;;;;3.25;1.50;;;;;;;;;;5094212;28;20027;-56
2021/12/05 03:40:01;;;;;;;5.70;1.88;;;;;;;;;;5094343;28;20115;-56
2021/12/05 03:42:27;;;;;;;3.92;1.50;;;;;;;;;;5094401;28;20099;-57
2021/12/05 03:44:52;;;;;;;5.60;1.70;;;;;;;;;;5093927;28;20478;-56
2021/12/05 03:47:19;;;;;;;5.10;1.77;;;;;;;;;;5093718;28;20069;-57
2021/12/05 03:49:45;;;;;;;5.35;2.03;;;;;;;;;;5094049;28;20235;-55
2021/12/05 03:52:14;;;;;;;5.45;2.05;;;15.30;79.90;;;;;;5093888;28;20032;-56
2021/12/05 03:54:41;;;;;;;3.25;1.58;;;15.10;79.70;;;;;;5093760;28;20016;-57
2021/12/05 03:57:07;;;;;;;4.13;1.70;;;;;;;;;;5093691;28;20455;-57
2021/12/05 03:59:33;;;;;;;4.95;1.75;;;;;;;;;;5093939;28;20028;-57
2021/12/05 04:02:03;;;;;;;4.15;1.73;;;15.10;79.50;;;;;;5093425;28;20137;-54
2021/12/05 04:04:29;;;;;;;4.88;1.92;;;;;;;;;;5093910;28;20372;-57
2021/12/05 04:06:55;;;;;;;3.78;1.92;;;;;;;;;;5093494;28;20036;-56
2021/12/05 04:09:21;;;;;;;7.68;1.40;;;;;;;;;;5093775;28;20089;-56
2021/12/05 04:12:00;;;;;;;6.30;1.77;;;15.00;79.40;;;;;;5093481;28;20066;-57
2021/12/05 04:14:48;;;;;;;5.28;1.92;;;15.00;79.50;;;;;;5093672;28;20044;-55
2021/12/05 04:17:17;;;;;;;3.63;1.55;;;15.00;79.50;;;;;;5093541;28;20030;-57
2021/12/05 04:19:43;;;;;;;5.13;1.90;;;;;;;;;;5093353;28;20036;-56
2021/12/05 04:22:09;;;;;;;5.88;1.48;;;;;;;;;;5093487;28;20017;-58
2021/12/05 04:24:35;;;;;;;5.05;1.40;;;;;;;;;;5093669;28;20066;-55
2021/12/05 04:27:02;;;;;;;3.42;1.48;;;15.00;76.50;;;;;;5093390;28;20036;-54
2021/12/05 04:29:28;;;;;;;2.88;1.60;;;;;;;;;;5093122;28;20063;-54
2021/12/05 04:31:54;;;;;;;5.03;1.55;;;;;;;;;;5093177;28;20064;-52
2021/12/05 04:34:20;;;;;;;3.95;1.27;;;;;;;;;;5093087;28;20024;-52
2021/12/05 04:36:46;;;;;;;5.32;1.73;;;;;;;;;;5093336;28;20489;-50
2021/12/05 04:39:13;;;;;;;4.07;1.50;;;15.00;79.30;;;;;;5093290;28;20043;-54
2021/12/05 04:41:41;;;;;;;4.63;1.40;;;15.00;79.90;;;;;;5093016;28;20076;-55
2021/12/05 04:44:07;;;;;;;3.78;1.30;;;;;;;;;;5093017;28;20028;-52
2021/12/05 04:46:34;;;;;;;3.70;1.70;;;15.00;79.70;;;;;;5093108;28;20039;-52
2021/12/05 04:49:01;;;;;;;3.72;1.75;;;14.90;76.40;;;;;;5093172;28;20374;-54
2021/12/05 04:51:32;;;;;;;4.65;1.40;;;14.90;79.60;;;;;;5092767;28;20480;-54
2021/12/05 04:53:58;;;;;;;3.10;1.30;;;;;;;;;;5091570;28;20532;-55
2021/12/05 04:56:25;;;;;;;2.90;1.50;;;15.10;79.50;;;;;;5092743;28;20089;-53
2021/12/05 04:58:53;;;;;;;4.45;1.55;;;14.90;79.40;;;;;;5092049;28;20099;-52
2021/12/05 05:01:19;;;;;;;3.40;1.60;;;;;;;;;;5092930;28;20034;-55
2021/12/05 05:03:46;;;;;;;4.70;1.55;;;14.90;79.00;;;;;;5092437;28;20047;-54
2021/12/05 05:06:17;;;;;;;3.90;1.20;;;;;;;;;;5092783;28;20039;-55
2021/12/05 05:08:45;;;;;;;4.00;1.15;;;15.00;79.50;;;;;;5092601;28;20031;-55
2021/12/05 05:11:15;;;;;;;5.13;1.65;;;15.00;79.60;;;;;;5092758;28;20545;-55
2021/12/05 05:13:42;;;;;;;3.70;1.70;;;14.90;79.40;;;;;;5092506;28;20024;-55
2021/12/05 05:16:09;;;;;;;3.08;1.35;;;14.90;77.40;;;;;;5092471;28;20030;-53
2021/12/05 05:18:57;;;;;;;2.05;1.40;;;;;;;;;;5092685;28;20091;-54
2021/12/05 05:24:18;;;;;;;4.80;1.70;;;;;;;;;;5092571;28;20105;-54
2021/12/05 05:29:55;;;;;;;3.05;1.52;;;;;;;;;;5092557;28;20071;-54
2021/12/05 05:43:21;;;;;;;3.17;1.15;;;;;;;;;;5092359;28;20039;-54
2021/12/05 05:51:10;;;;;;;2.83;1.27;;;14.80;79.60;;;;;;5092395;28;20032;-51
2021/12/05 05:53:36;;;;;;;2.13;0.90;;;;;;;;;;5091994;28;20039;-55
2021/12/05 05:56:04;;;;;;;1.58;1.05;;;14.80;78.30;;;;;;5092048;28;20026;-55
2021/12/05 05:58:53;;;;;;;3.30;1.83;;;;;;;;;;5092317;28;20025;-51
2021/12/05 06:04:04;;;;;;;2.05;1.13;;;14.90;77.00;;;;;;5091835;28;20104;-53
2021/12/05 06:06:32;;;;;;;3.22;1.48;;;;;;;;;;5092084;28;20028;-53
2021/12/05 06:08:58;;;;;;;2.28;1.30;;;;;;;;;;5090457;28;20474;-54
2021/12/05 06:11:24;;;;;;;2.35;1.00;;;;;;;;;;5094831;28;20024;-55
2021/12/05 06:13:51;;;;;;;2.67;1.10;;;;;;;;;;5095862;28;20032;-54
2021/12/05 06:16:17;;;;;;;2.70;1.17;;;;;;;;;;5095868;28;20024;-54
2021/12/05 06:18:45;;;;;;;3.58;1.38;;;15.10;79.70;;;;;;5095936;28;20119;-54
2021/12/05 06:21:13;;;;;;;1.38;0.77;;;15.30;80.00;;;;;;5096040;28;20062;-54
2021/12/05 06:23:40;;;;;;;2.72;1.08;;;15.30;80.00;;;;;;5095851;28;20024;-55
2021/12/05 06:26:09;;;;;;;3.00;1.13;;;15.20;79.80;;;;;;5095511;28;20039;-55
2021/12/05 06:28:40;;;;;;;1.35;0.82;;;;;;;;;;5095496;28;20024;-52
2021/12/05 06:31:29;;;;;;;1.92;0.90;;;;;;;;;;5095838;28;20035;-52
2021/12/05 06:47:21;;;;;;;1.85;0.90;;;;;;;;;;5095555;28;20089;-54
2021/12/05 06:49:47;;;;;;;2.08;0.60;;;;;;;;;;5095376;28;20028;-54
2021/12/05 06:52:14;;;;;;;2.40;1.10;;;16.20;79.00;;;;;;5095343;28;20054;-53
2021/12/05 06:54:42;;;;;;;2.33;1.13;;;15.90;78.70;;;;;;5094968;28;20024;-55
2021/12/05 06:57:08;;;;;;;3.40;1.25;;;;;;;;;;5095126;28;20066;-53
2021/12/05 06:59:38;;;;;;;1.00;0.60;;;15.90;78.40;;;;;;5094822;28;20032;-53
2021/12/05 07:02:04;;;;;;;2.30;0.75;;;;;;;;;;5094607;28;20031;-55
2021/12/05 07:07:06;;;;;;;2.05;0.65;;;;;;;;;;5094969;28;20609;-50
2021/12/05 07:09:33;;;;;;;1.90;1.27;;;;;;;;;;5094810;28;20051;-55
2021/12/05 07:22:20;;;;;;;2.70;0.82;;;;;;;;;;5093376;28;20402;-58
2021/12/05 07:24:51;;;;;;;0.90;0.60;;;;;;;;;;5094131;28;20036;-58
2021/12/05 07:41:16;;;;;;;1.05;0.45;;;;;;;;;;5094416;28;20089;-60
2021/12/05 07:43:42;;;;;;;1.92;0.90;;;;;;;;;;5094458;28;20032;-59
2021/12/05 07:46:08;;;;;;;2.72;0.60;;;;;;;;;;5094146;28;20534;-58
2021/12/05 07:48:37;;;;;;;1.45;0.73;;;15.80;78.60;;;;;;5093866;28;20020;-55
2021/12/05 07:53:53;;;;;;;5.05;0.80;;;15.70;73.80;;;;;;5094295;28;20054;-59
2021/12/05 07:56:38;;;;;;;1.38;0.60;;;15.70;79.20;;;;;;5094236;28;20024;-61
2021/12/05 08:00:16;;;;;;;1.90;0.90;;;15.70;79.50;;;;;;5093845;28;20028;-60
2021/12/05 08:15:58;;;;;;;1.10;0.70;;;;;;;;;;5093439;28;20107;-60
2021/12/05 08:18:24;;;;;;;1.40;0.65;;;;;;;;;;5093249;28;20024;-60
2021/12/05 08:20:50;;;;;;;1.30;0.47;;;;;;;;;;5092915;28;20047;-59
2021/12/05 08:23:18;;;;;;;1.13;0.40;;;;;;;;;;5093092;28;20024;-60
2021/12/05 08:25:51;;;;;;;1.55;0.73;;;;;;;;;;5092972;28;20074;-60
2021/12/05 08:28:30;;;;;;;0.73;0.40;;;;;;;;;;5093004;28;20035;-60
2021/12/05 08:31:11;;;;;;;1.25;0.60;;;;;;;;;;5092977;28;20036;-60
2021/12/05 09:24:44;;;;;;;1.05;0.52;;;;;;;;;;5092691;28;20035;-59
2021/12/05 09:27:47;;;;;;;0.60;0.40;;;;;;;;;;5092304;28;20118;-59
2021/12/05 09:39:08;;;;;;;1.92;0.50;;;;;;;;;;5092403;28;20125;-59
2021/12/05 10:09:26;;;;;;;1.38;0.50;;;;;;;;;;5095931;28;20165;-59
2021/12/05 10:11:44;;;;;;;1.50;0.77;;;;;;;;;;5095519;28;20128;-59
2021/12/05 10:14:22;;;;;;;2.13;1.23;;;;;;;;;;5095830;28;20016;-59
2021/12/05 10:37:11;;;;;;;2.60;1.10;;;16.80;70.90;;;;;;5094187;28;20050;-60
2021/12/05 10:39:38;;;;;;;2.03;1.08;;;;;;;;;;5095120;28;20024;-60
2021/12/05 10:42:37;;;;;;;3.35;0.93;;;16.80;70.70;;;;;;5094907;28;20032;-62
2021/12/05 10:45:09;;;;;;;3.50;1.20;;;16.70;80.10;;;;;;5093892;28;20027;-48
2021/12/05 10:47:48;;;;;;;2.50;1.15;;;16.80;71.80;;;;;;5093094;28;20553;-48
2021/12/05 10:50:43;;;;;;;1.77;0.85;;;16.80;63.70;;;;;;5092898;28;20486;-46
2021/12/05 10:53:31;;;;;;;1.88;1.00;;;16.90;63.50;;;;;;5093396;28;20055;-46
2021/12/05 10:56:06;;;;;;;4.18;1.50;;;17.00;63.50;;;;;;5093503;28;20103;-47
2021/12/05 10:58:46;;;;;;;2.00;1.08;;;17.00;69.10;;;;;;5092807;28;20024;-46
2021/12/05 11:01:22;;;;;;;4.73;1.20;;;17.30;63.30;;;;;;5095352;28;20016;-48
2021/12/05 11:03:53;;;;;;;2.72;1.33;;;17.10;68.80;;;;;;5094987;28;20290;-47
2021/12/05 11:06:28;;;;;;;1.95;0.98;;;17.20;69.10;;;;;;5095142;28;20036;-48
2021/12/05 11:08:57;;;;;;;1.92;1.38;;;17.30;69.00;;;;;;5095263;28;20024;-46
2021/12/05 11:11:24;;;;;;;2.70;1.20;;;;;;;;;;5095838;28;20060;-47
2021/12/05 11:13:50;;;;;;;4.50;1.40;;;;;;;;;;5095323;28;20023;-48
2021/12/05 11:16:42;;;;;;;2.80;1.15;;;17.40;63.00;;;;;;5096005;28;20020;-46
2021/12/05 11:19:23;;;;;;;3.40;1.52;;;17.50;63.30;;;;;;5095180;28;20020;-47
2021/12/05 11:22:04;;;;;;;1.77;1.02;;;17.30;68.90;;;;;;5095125;28;20379;-47
2021/12/05 11:24:38;;;;;;;2.28;1.10;;;17.60;68.80;;;;;;5095259;28;20016;-46
2021/12/05 11:27:24;;;;;;;2.65;1.48;;;17.70;62.90;;;;;;5095128;28;20475;-46
2021/12/05 11:30:13;;;;;;;3.90;1.58;;;17.60;62.80;;;;;;5094748;28;20068;-47
2021/12/05 11:32:39;;;;;;;3.28;1.63;;;;;;;;;;5094804;28;20021;-47
2021/12/05 11:35:16;;;;;;;4.03;1.60;;;17.80;62.70;;;;;;5094542;28;20525;-48
2021/12/05 11:37:55;;;;;;;2.13;1.48;;;17.90;62.70;;;;;;5093014;28;20028;-48
2021/12/05 11:40:23;;;;;;;3.85;1.65;;;17.90;67.80;;;;;;5094167;28;20032;-47
2021/12/05 11:43:02;;;;;;;3.30;1.55;;;18.00;62.50;;;;;;5094012;28;20582;-47
2021/12/05 11:45:30;;;;;;;3.92;1.48;;;17.90;67.90;;;;;;5094182;28;20550;-48
2021/12/05 11:47:57;;;;;;;2.60;1.48;;;18.00;64.50;;;;;;5094948;28;20469;-68
2021/12/05 11:50:35;;;;;;;2.00;1.40;;;18.00;62.40;;;;;;5094956;28;20024;-68
2021/12/05 11:53:02;;;;;;;3.97;1.80;;;;;;;;;;5095197;28;20390;-67
2021/12/05 11:55:31;;;;;;;3.33;1.80;;;18.10;67.80;;;;;;5094455;28;20479;-64
2021/12/05 11:57:57;;;;;;;3.30;1.60;;;18.10;66.00;;;;;;5095013;28;20016;-65
2021/12/05 12:00:25;;;;;;;1.98;1.50;;;18.10;67.90;;;;;;5094084;28;20111;-65
2021/12/05 12:02:52;;;;;;;4.60;2.28;;;18.40;66.70;;;;;;5094304;28;20047;-65
2021/12/05 12:05:27;;;;;;;3.17;1.83;;;18.10;62.20;;;;;;5094955;28;20101;-64
2021/12/05 12:08:07;;;;;;;3.83;1.88;;;18.20;68.10;;;;;;5094992;28;20039;-65
2021/12/05 12:10:39;;;;;;;4.35;2.05;;;18.20;67.90;;;;;;5094073;28;20022;-64
2021/12/05 12:13:14;;;;;;;4.03;2.28;;;18.00;61.70;;;;;;5093574;28;20023;-63
2021/12/05 12:15:44;;;;;;;3.60;2.63;;;18.20;67.90;;;;;;5093450;28;20024;-64
2021/12/05 12:18:19;;;;;;;3.70;2.40;;;18.10;67.90;;;;;;5093517;28;20482;-64
2021/12/05 12:20:47;;;;;;;4.93;2.25;;;18.20;67.60;;;;;;5093966;28;20023;-64
2021/12/05 12:23:15;;;;;;;3.90;2.35;;;18.40;65.80;;;;;;5093295;28;20043;-64
2021/12/05 12:25:43;;;;;;;3.40;2.03;;;18.30;67.30;;;;;;5093106;28;20031;-64
2021/12/05 12:28:10;;;;;;;4.43;2.40;;;18.00;67.20;;;;;;5093558;28;20540;-64
2021/12/05 12:30:40;;;;;;;4.85;2.75;;;18.20;67.10;;;;;;5093584;28;20140;-64
2021/12/05 12:33:16;;;;;;;5.60;2.85;;;18.30;67.10;;;;;;5093051;28;20059;-64
2021/12/05 12:35:45;;;;;;;5.15;2.42;;;18.30;67.10;;;;;;5093081;28;20020;-64
2021/12/05 12:38:41;;;;;;;4.38;2.78;;;18.40;61.40;;;;;;5092975;28;20545;-64
2021/12/05 12:41:22;;;;;;;4.90;2.65;;;18.40;61.00;;;;;;5093289;28;20032;-64
2021/12/05 12:43:53;;;;;;;3.53;2.25;;;18.50;61.00;;;;;;5093639;28;20031;-66
2021/12/05 12:46:19;;;;;;;4.40;2.70;;;;;;;;;;5094007;28;20123;-67
2021/12/05 12:48:45;;;;;;;4.90;2.47;;;;;;;;;;5094303;28;20063;-66
2021/12/05 12:51:29;;;;;;;4.60;2.67;;;18.70;67.20;;;;;;5093447;28;20024;-65
2021/12/05 12:53:57;;;;;;;4.20;2.75;;;19.00;67.10;;;;;;5094571;28;20020;-67
2021/12/05 12:56:24;;;;;;;5.85;2.22;;;;;;;;;;5092828;28;20171;-68
2021/12/05 12:58:58;;;;;;;3.47;2.50;;;18.80;60.80;;;;;;5094133;28;20483;-68
2021/12/05 13:02:04;;;;;;;6.35;2.13;;;18.90;60.60;;;;;;5096061;28;20043;-68
2021/12/05 13:10:39;;;;;;;4.50;2.33;;;18.70;66.80;;;;;;5095817;28;20100;-71
2021/12/05 13:13:14;;;;;;;4.15;2.35;;;18.70;66.90;;;;;;5094376;28;20426;-72
2021/12/05 13:15:43;;;;;;;4.60;2.30;;;18.80;66.90;;;;;;5094637;28;20020;-72
2021/12/05 13:18:13;;;;;;;5.65;2.60;;;18.80;61.40;;;;;;5094691;28;20046;-48
2021/12/05 13:20:42;;;;;;;5.55;2.65;;;18.80;61.50;;;;;;5092013;28;20073;-47
2021/12/05 13:23:31;;;;;;;4.82;2.63;;;18.80;61.20;;;;;;5092669;28;20030;-48
2021/12/05 13:26:05;;;;;;;4.30;2.78;;;18.70;61.70;;;;;;5092547;28;20035;-49
2021/12/05 13:28:50;;;;;;;4.50;2.60;;;18.80;61.70;;;;;;5092672;28;20132;-48
2021/12/05 13:31:27;;;;;;;4.30;2.38;;;18.70;61.80;;;;;;5092730;28;20417;-48
2021/12/05 13:34:17;;;;;;;3.83;2.55;;;18.80;62.00;;;;;;5092262;28;20024;-48
2021/12/05 13:36:44;;;;;;;;;;;18.80;63.10;;;;;;5092665;28;20100;-49
2021/12/05 13:39:35;;;;;;;3.53;2.50;;;18.70;61.90;;;;;;5092402;28;19904;-48
2021/12/05 13:42:08;;;;;;;2.85;2.03;;;18.70;67.90;;;;;;5092168;28;20020;-47
2021/12/05 13:45:12;;;;;;;4.20;2.20;;;18.70;62.20;;;;;;5092549;28;20031;-48
2021/12/05 13:47:52;;;;;;;4.63;2.60;;;18.80;62.30;;;;;;5049488;28;20087;-49
2021/12/05 13:50:18;;;;;;;3.25;2.05;;;;;;;;;;5088631;28;20082;-48
2021/12/05 13:52:58;;;;;;;3.92;2.35;;;18.90;62.30;;;;;;5092369;28;20032;-49
2021/12/05 13:55:45;;;;;;;3.47;2.58;;;18.70;62.30;;;;;;5092667;28;20110;-49
2021/12/05 13:58:32;;;;;;;4.20;2.60;;;18.70;62.00;;;;;;5092645;28;20111;-47
2021/12/05 14:00:58;;;;;;;4.60;2.40;;;;;;;;;;5092150;28;20032;-48
2021/12/05 14:03:45;;;;;;;3.58;2.45;;;18.70;62.60;;;;;;5091839;28;20052;-46
2021/12/05 14:06:40;;;;;;;2.90;2.33;;;18.70;62.40;;;;;;5092805;28;20032;-48
2021/12/05 14:09:06;;;;;;;3.58;2.20;;;;;;;;;;5092328;28;20028;-47
2021/12/05 14:11:34;;;;;;;3.38;2.30;;;18.70;66.30;;;;;;5092351;28;20027;-49
2021/12/05 14:14:04;;;;;;;2.78;2.10;;;18.80;68.60;;;;;;5092341;28;20031;-49
2021/12/05 14:16:36;;;;;;;3.67;2.35;;;18.80;67.90;;;;;;5092135;28;20032;-47
2021/12/05 14:19:04;;;;;;;4.03;2.78;;;18.80;67.80;;;;;;5091921;28;20036;-48
2021/12/05 14:21:30;;;;;;;3.90;2.40;;;18.80;64.90;;;;;;5092170;28;20059;-48
2021/12/05 14:23:59;;;;;;;2.40;2.20;;;18.80;67.90;;;;;;5091793;28;20076;-48
2021/12/05 14:26:28;;;;;;;3.55;2.60;;;18.80;67.80;;;;;;5091761;28;20032;-47
2021/12/05 14:29:11;;;;;;;3.05;2.10;;;18.70;62.00;;;;;;5092140;28;20017;-49
2021/12/05 14:31:44;;;;;;;3.05;2.45;;;18.70;62.20;;;;;;5093465;28;20050;-48
2021/12/05 14:34:11;;;;;;;2.88;2.20;;;18.60;65.70;;;;;;5095593;28;20559;-47
2021/12/05 14:36:48;;;;;;;2.83;2.15;;;18.50;67.90;;;;;;5095694;28;20478;-48
2021/12/05 14:39:19;;;;;;;3.97;2.92;;;18.50;68.30;;;;;;5095748;28;20024;-47
2021/12/05 14:41:47;;;;;;;3.25;2.78;;;18.50;68.60;;;;;;5095909;28;20071;-47
2021/12/05 14:44:13;;;;;;;4.30;2.90;;;;;;;;;;5095326;28;20379;-47
2021/12/05 14:46:50;;;;;;;3.13;2.38;;;18.50;62.50;;;;;;5095188;28;20462;-48
2021/12/05 14:49:16;;;;;;;3.47;2.55;;;;;;;;;;5095529;28;20012;-48
2021/12/05 14:51:45;;;;;;;3.95;2.70;;;18.60;68.50;;;;;;5095206;28;20032;-48
2021/12/05 14:54:18;;;;;;;2.72;2.35;;;18.70;68.50;;;;;;5095194;28;20044;-49
2021/12/05 14:56:44;;;;;;;3.50;2.58;;;;;;;;;;5095183;28;20509;-48
2021/12/05 14:59:12;;;;;;;2.67;2.30;;;18.70;69.10;;;;;;5095384;28;20020;-49
2021/12/05 15:01:41;;;;;;;3.63;2.50;;;18.80;69.20;;;;;;5095126;28;20073;-48
2021/12/05 15:04:09;;;;;;;3.80;2.35;;;18.80;69.40;;;;;;5094878;28;20048;-48
2021/12/05 15:06:39;;;;;;;4.78;2.33;;;18.80;69.20;;;;;;5094901;28;20418;-48
2021/12/05 15:09:18;;;;;;;3.28;2.35;;;18.70;68.40;;;;;;5094667;28;20039;-47
2021/12/05 15:12:18;;;;;;;2.40;2.20;;;18.70;62.10;;;;;;5094647;28;20029;-47
2021/12/05 15:14:50;;;;;;;3.90;2.70;;;18.60;67.40;;;;;;5094967;28;20105;-48
2021/12/05 15:17:19;;;;;;;3.83;2.80;;;18.60;61.30;;;;;;5094594;28;20091;-46
2021/12/05 15:19:49;;;;;;;3.70;2.55;;;18.50;66.80;;;;;;5093864;28;20032;-50
2021/12/05 15:22:15;;;;;;;4.07;3.05;;;;;;;;;;5094339;28;20371;-49
2021/12/05 15:24:51;;;;;;;3.67;2.42;;;18.60;66.80;;;;;;5094268;28;20035;-49
2021/12/05 15:27:19;;;;;;;3.72;2.25;;;18.60;67.00;;;;;;5094629;28;20039;-48
2021/12/05 15:29:51;;;;;;;3.05;2.47;;;18.50;66.90;;;;;;5094317;28;20021;-48
2021/12/05 15:32:23;;;;;;;3.70;2.63;;;18.50;61.20;;;;;;5094382;28;20032;-48
2021/12/05 15:34:51;;;;;;;3.55;2.47;;;18.40;67.30;;;;;;5094643;28;20082;-48
2021/12/05 15:37:17;;;;;;;2.83;2.40;;;;;;;;;;5094547;28;20032;-49
2021/12/05 15:39:45;;;;;;;2.22;2.03;;;18.40;67.60;;;;;;5094139;28;20024;-49
2021/12/05 15:42:23;;;;;;;3.60;2.30;;;18.30;61.50;;;;;;5094086;28;20020;-49
2021/12/05 15:44:50;;;;;;;3.42;2.55;;;18.20;67.00;;;;;;5094170;28;20024;-48
2021/12/05 15:47:19;;;;;;;4.57;2.40;;;18.20;67.00;;;;;;5094033;28;20482;-49
2021/12/05 15:50:11;;;;;;;2.88;2.63;;;18.20;61.40;;;;;;5094081;28;20085;-49
2021/12/05 15:52:49;;;;;;;5.05;2.42;;;18.20;61.20;;;;;;5094047;28;20028;-48
2021/12/05 15:55:15;;;;;;;3.42;2.30;;;;;;;;;;5094247;28;20040;-48
2021/12/05 15:57:45;;;;;;;3.10;2.40;;;18.20;66.90;;;;;;5094010;28;20079;-48
2021/12/05 16:00:16;;;;;;;2.63;2.30;;;18.20;67.00;;;;;;5093880;28;20050;-48
2021/12/05 16:02:47;;;;;;;3.08;2.10;;;;;;;;;;5093642;28;20043;-47
2021/12/05 16:05:19;;;;;;;2.78;2.25;;;18.20;66.70;;;;;;5093707;28;20030;-48
2021/12/05 16:07:45;;;;;;;2.20;2.00;;;;;;;;;;5093833;28;20028;-48
2021/12/05 16:10:23;;;;;;;2.47;2.17;;;18.30;67.00;;;;;;5093688;28;20024;-48
2021/12/05 16:12:53;;;;;;;2.45;1.83;;;18.20;66.90;;;;;;5093199;28;20471;-47
2021/12/05 16:15:25;;;;;;;3.90;1.60;;;18.20;67.00;;;;;;5093719;28;20047;-50
2021/12/05 16:17:57;;;;;;;2.75;1.85;;;18.40;67.10;;;;;;5093604;28;20039;-50
2021/12/05 16:20:26;;;;;;;5.10;2.30;;;18.30;67.10;;;;;;5093390;28;20119;-48
2021/12/05 16:23:20;;;;;;;3.00;2.20;;;18.30;61.20;;;;;;5093157;28;20048;-49
2021/12/05 16:26:13;;;;;;;2.28;1.80;;;18.30;66.80;;;;;;5093602;28;20348;-48
2021/12/05 16:28:58;;;;;;;3.88;2.42;;;18.30;60.80;;;;;;5092135;28;20020;-49
2021/12/05 16:31:30;;;;;;;3.58;2.08;;;18.20;60.70;;;;;;5093108;28;20031;-48
